sensor_id;sensor_type;location;lat;lon;timestamp;pressure;altitude;pressure_sealevel;temperature;humidity
71424;BME280;59240;51.370;-0.486;2023-09-19T00:03:19;100743.06;;;14.76;85.32
71424;BME280;59240;51.370;-0.486;2023-09-19T00:08:16;100732.00;;;14.68;85.27
71424;BME280;59240;51.370;-0.486;2023-09-19T00:13:13;100747.38;;;14.77;84.91
71424;BME280;59240;51.370;-0.486;2023-09-19T00:18:12;100738.91;;;14.71;85.31
71424;BME280;59240;51.370;-0.486;2023-09-19T00:23:09;100743.16;;;14.73;85.03
71424;BME280;59240;51.370;-0.486;2023-09-19T00:28:06;100745.78;;;14.73;84.68
71424;BME280;59240;51.370;-0.486;2023-09-19T00:33:04;100725.13;;;14.66;84.52
71424;BME280;59240;51.370;-0.486;2023-09-19T00:38:03;100738.22;;;14.66;84.66
71424;BME280;59240;51.370;-0.486;2023-09-19T00:43:00;100737.16;;;14.71;84.59
71424;BME280;59240;51.370;-0.486;2023-09-19T00:47:57;100744.31;;;14.66;84.20
71424;BME280;59240;51.370;-0.486;2023-09-19T00:52:54;100760.06;;;14.66;84.17
71424;BME280;59240;51.370;-0.486;2023-09-19T00:57:56;100753.25;;;14.62;84.19
71424;BME280;59240;51.370;-0.486;2023-09-19T01:02:53;100751.88;;;14.52;84.18
71424;BME280;59240;51.370;-0.486;2023-09-19T01:07:51;100750.78;;;14.58;83.77
71424;BME280;59240;51.370;-0.486;2023-09-19T01:13:01;100760.28;;;14.60;83.95
71424;BME280;59240;51.370;-0.486;2023-09-19T01:28:30;100766.63;;;14.55;85.92
71424;BME280;59240;51.370;-0.486;2023-09-19T01:34:00;100768.41;;;14.54;86.16
71424;BME280;59240;51.370;-0.486;2023-09-19T01:38:58;100769.31;;;14.53;83.33
71424;BME280;59240;51.370;-0.486;2023-09-19T01:44:03;100728.84;;;14.37;83.66
71424;BME280;59240;51.370;-0.486;2023-09-19T01:49:25;100754.50;;;14.52;85.87
71424;BME280;59240;51.370;-0.486;2023-09-19T01:54:31;100753.78;;;14.48;84.62
71424;BME280;59240;51.370;-0.486;2023-09-19T01:59:35;100741.63;;;14.46;84.51
71424;BME280;59240;51.370;-0.486;2023-09-19T02:04:34;100750.19;;;14.51;83.44
71424;BME280;59240;51.370;-0.486;2023-09-19T02:09:31;100755.56;;;14.48;83.45
71424;BME280;59240;51.370;-0.486;2023-09-19T02:14:32;100769.31;;;14.53;83.38
71424;BME280;59240;51.370;-0.486;2023-09-19T02:19:29;100769.44;;;14.50;83.30
71424;BME280;59240;51.370;-0.486;2023-09-19T02:24:27;100746.22;;;14.39;83.26
71424;BME280;59240;51.370;-0.486;2023-09-19T02:29:24;100772.69;;;14.57;83.23
71424;BME280;59240;51.370;-0.486;2023-09-19T02:34:22;100752.78;;;14.51;83.21
71424;BME280;59240;51.370;-0.486;2023-09-19T02:39:19;100755.19;;;14.57;82.66
71424;BME280;59240;51.370;-0.486;2023-09-19T02:44:16;100732.84;;;14.47;82.74
71424;BME280;59240;51.370;-0.486;2023-09-19T02:49:12;100746.78;;;14.49;82.86
71424;BME280;59240;51.370;-0.486;2023-09-19T02:54:10;100710.59;;;14.34;82.79
71424;BME280;59240;51.370;-0.486;2023-09-19T02:59:08;100736.94;;;14.54;83.10
71424;BME280;59240;51.370;-0.486;2023-09-19T03:04:06;100719.94;;;14.41;82.79
71424;BME280;59240;51.370;-0.486;2023-09-19T03:09:04;100739.69;;;14.51;82.82
71424;BME280;59240;51.370;-0.486;2023-09-19T03:14:04;100728.97;;;14.57;82.83
71424;BME280;59240;51.370;-0.486;2023-09-19T03:19:01;100736.69;;;14.60;82.94
71424;BME280;59240;51.370;-0.486;2023-09-19T03:23:58;100720.94;;;14.62;82.75
71424;BME280;59240;51.370;-0.486;2023-09-19T03:28:54;100710.56;;;14.59;82.75
71424;BME280;59240;51.370;-0.486;2023-09-19T03:33:51;100731.13;;;14.69;82.63
71424;BME280;59240;51.370;-0.486;2023-09-19T03:38:48;100723.19;;;14.71;82.84
71424;BME280;59240;51.370;-0.486;2023-09-19T03:43:45;100716.03;;;14.74;82.55
71424;BME280;59240;51.370;-0.486;2023-09-19T03:48:42;100702.13;;;14.72;82.85
71424;BME280;59240;51.370;-0.486;2023-09-19T03:53:39;100691.66;;;14.72;83.07
71424;BME280;59240;51.370;-0.486;2023-09-19T03:58:36;100683.00;;;14.70;83.03
71424;BME280;59240;51.370;-0.486;2023-09-19T04:03:36;100670.66;;;14.72;83.38
71424;BME280;59240;51.370;-0.486;2023-09-19T04:08:43;100680.91;;;14.78;83.77
71424;BME280;59240;51.370;-0.486;2023-09-19T04:13:41;100656.78;;;14.70;83.66
71424;BME280;59240;51.370;-0.486;2023-09-19T04:18:38;100675.28;;;14.88;83.85
71424;BME280;59240;51.370;-0.486;2023-09-19T04:23:36;100658.59;;;14.90;84.12
71424;BME280;59240;51.370;-0.486;2023-09-19T04:28:34;100624.00;;;14.81;84.27
71424;BME280;59240;51.370;-0.486;2023-09-19T04:33:33;100640.66;;;15.00;84.09
71424;BME280;59240;51.370;-0.486;2023-09-19T04:38:31;100631.53;;;15.09;84.27
71424;BME280;59240;51.370;-0.486;2023-09-19T04:43:29;100611.81;;;15.00;84.42
71424;BME280;59240;51.370;-0.486;2023-09-19T04:48:26;100625.91;;;15.18;84.47
71424;BME280;59240;51.370;-0.486;2023-09-19T04:53:23;100600.06;;;15.09;84.81
71424;BME280;59240;51.370;-0.486;2023-09-19T04:58:19;100624.41;;;15.32;84.81
71424;BME280;59240;51.370;-0.486;2023-09-19T05:03:16;100634.13;;;15.49;84.75
71424;BME280;59240;51.370;-0.486;2023-09-19T05:08:14;100638.91;;;15.60;84.83
71424;BME280;59240;51.370;-0.486;2023-09-19T05:13:11;100621.22;;;15.65;84.81
71424;BME280;59240;51.370;-0.486;2023-09-19T05:18:08;100643.44;;;15.77;84.73
71424;BME280;59240;51.370;-0.486;2023-09-19T05:23:06;100641.25;;;15.86;84.84
71424;BME280;59240;51.370;-0.486;2023-09-19T05:28:10;100633.97;;;15.92;84.76
71424;BME280;59240;51.370;-0.486;2023-09-19T05:33:11;100629.88;;;15.86;85.20
71424;BME280;59240;51.370;-0.486;2023-09-19T05:38:08;100631.59;;;16.06;84.52
71424;BME280;59240;51.370;-0.486;2023-09-19T05:43:10;100626.00;;;16.12;84.68
71424;BME280;59240;51.370;-0.486;2023-09-19T05:48:12;100618.69;;;16.19;84.94
71424;BME280;59240;51.370;-0.486;2023-09-19T05:53:10;100597.63;;;16.20;84.53
71424;BME280;59240;51.370;-0.486;2023-09-19T05:58:11;100600.84;;;16.25;84.33
71424;BME280;59240;51.370;-0.486;2023-09-19T06:03:11;100574.09;;;16.17;84.41
71424;BME280;59240;51.370;-0.486;2023-09-19T06:08:08;100592.38;;;16.37;84.54
71424;BME280;59240;51.370;-0.486;2023-09-19T06:13:06;100551.44;;;16.14;85.02
71424;BME280;59240;51.370;-0.486;2023-09-19T06:18:03;100595.47;;;16.46;84.94
71424;BME280;59240;51.370;-0.486;2023-09-19T06:23:02;100589.00;;;16.53;85.26
71424;BME280;59240;51.370;-0.486;2023-09-19T06:27:59;100573.16;;;16.54;85.33
71424;BME280;59240;51.370;-0.486;2023-09-19T06:32:56;100546.44;;;16.45;85.77
71424;BME280;59240;51.370;-0.486;2023-09-19T06:37:54;100568.06;;;16.68;85.97
71424;BME280;59240;51.370;-0.486;2023-09-19T06:42:51;100567.44;;;16.81;86.23
71424;BME280;59240;51.370;-0.486;2023-09-19T06:47:50;100559.19;;;16.88;86.38
71424;BME280;59240;51.370;-0.486;2023-09-19T06:52:50;100559.31;;;17.03;86.21
71424;BME280;59240;51.370;-0.486;2023-09-19T06:57:51;100518.47;;;16.95;86.12
71424;BME280;59240;51.370;-0.486;2023-09-19T07:03:04;100538.63;;;17.28;86.20
71424;BME280;59240;51.370;-0.486;2023-09-19T07:08:08;100527.44;;;17.40;85.54
71424;BME280;59240;51.370;-0.486;2023-09-19T07:13:08;100503.41;;;17.46;85.45
71424;BME280;59240;51.370;-0.486;2023-09-19T07:18:07;100522.69;;;17.63;85.00
71424;BME280;59240;51.370;-0.486;2023-09-19T07:23:08;100524.88;;;17.72;84.78
71424;BME280;59240;51.370;-0.486;2023-09-19T07:28:05;100498.94;;;17.64;84.42
71424;BME280;59240;51.370;-0.486;2023-09-19T07:33:03;100495.81;;;17.73;84.13
71424;BME280;59240;51.370;-0.486;2023-09-19T07:38:01;100502.50;;;17.79;83.68
71424;BME280;59240;51.370;-0.486;2023-09-19T07:42:58;100493.31;;;17.86;83.98
71424;BME280;59240;51.370;-0.486;2023-09-19T07:47:58;100506.16;;;17.92;83.89
71424;BME280;59240;51.370;-0.486;2023-09-19T07:53:01;100499.84;;;17.95;83.82
71424;BME280;59240;51.370;-0.486;2023-09-19T07:58:02;100502.25;;;17.99;83.89
71424;BME280;59240;51.370;-0.486;2023-09-19T08:03:01;100500.34;;;18.01;83.76
71424;BME280;59240;51.370;-0.486;2023-09-19T08:08:08;100491.06;;;18.10;83.86
71424;BME280;59240;51.370;-0.486;2023-09-19T08:13:05;100503.84;;;18.32;83.33
71424;BME280;59240;51.370;-0.486;2023-09-19T08:18:02;100494.47;;;18.42;82.71
71424;BME280;59240;51.370;-0.486;2023-09-19T08:23:02;100494.84;;;18.50;82.23
71424;BME280;59240;51.370;-0.486;2023-09-19T08:28:00;100499.22;;;18.66;81.73
71424;BME280;59240;51.370;-0.486;2023-09-19T08:33:01;100484.94;;;18.84;81.59
71424;BME280;59240;51.370;-0.486;2023-09-19T08:37:59;100446.09;;;18.86;81.61
71424;BME280;59240;51.370;-0.486;2023-09-19T08:43:01;100458.53;;;19.12;80.91
71424;BME280;59240;51.370;-0.486;2023-09-19T08:48:23;100474.38;;;19.12;79.91
71424;BME280;59240;51.370;-0.486;2023-09-19T08:53:33;100455.72;;;19.01;79.50
71424;BME280;59240;51.370;-0.486;2023-09-19T08:58:34;100482.19;;;19.14;79.67
71424;BME280;59240;51.370;-0.486;2023-09-19T09:03:39;100496.91;;;19.18;79.78
71424;BME280;59240;51.370;-0.486;2023-09-19T09:08:38;100497.66;;;19.06;79.34
71424;BME280;59240;51.370;-0.486;2023-09-19T09:13:36;100475.22;;;18.99;79.53
71424;BME280;59240;51.370;-0.486;2023-09-19T09:18:34;100488.25;;;19.02;79.15
71424;BME280;59240;51.370;-0.486;2023-09-19T09:23:31;100497.75;;;19.04;79.01
71424;BME280;59240;51.370;-0.486;2023-09-19T09:28:31;100497.75;;;19.04;78.90
71424;BME280;59240;51.370;-0.486;2023-09-19T09:33:28;100474.97;;;18.89;78.66
71424;BME280;59240;51.370;-0.486;2023-09-19T09:38:42;100460.25;;;18.85;77.99
71424;BME280;59240;51.370;-0.486;2023-09-19T09:43:40;100491.34;;;19.23;78.10
71424;BME280;59240;51.370;-0.486;2023-09-19T09:48:39;100503.66;;;19.51;77.71
71424;BME280;59240;51.370;-0.486;2023-09-19T09:53:36;100493.72;;;19.68;76.40
71424;BME280;59240;51.370;-0.486;2023-09-19T09:58:37;100479.31;;;19.60;76.83
71424;BME280;59240;51.370;-0.486;2023-09-19T10:03:38;100513.63;;;19.74;75.23
71424;BME280;59240;51.370;-0.486;2023-09-19T10:09:05;100497.53;;;19.64;73.11
71424;BME280;59240;51.370;-0.486;2023-09-19T10:14:10;100475.22;;;19.68;74.85
71424;BME280;59240;51.370;-0.486;2023-09-19T10:19:09;100467.19;;;19.84;74.33
71424;BME280;59240;51.370;-0.486;2023-09-19T10:24:07;100459.81;;;20.02;73.69
71424;BME280;59240;51.370;-0.486;2023-09-19T10:29:06;100504.06;;;20.13;74.18
71424;BME280;59240;51.370;-0.486;2023-09-19T10:34:05;100467.47;;;20.19;74.30
71424;BME280;59240;51.370;-0.486;2023-09-19T10:39:02;100459.03;;;20.40;73.39
71424;BME280;59240;51.370;-0.486;2023-09-19T10:44:05;100451.59;;;20.59;72.67
71424;BME280;59240;51.370;-0.486;2023-09-19T10:49:03;100473.06;;;20.67;72.00
71424;BME280;59240;51.370;-0.486;2023-09-19T10:54:16;100467.34;;;20.73;69.40
71424;BME280;59240;51.370;-0.486;2023-09-19T10:59:16;100476.44;;;20.69;71.50
71424;BME280;59240;51.370;-0.486;2023-09-19T11:04:27;100472.22;;;20.54;70.73
71424;BME280;59240;51.370;-0.486;2023-09-19T11:09:43;100473.50;;;20.21;72.57
71424;BME280;59240;51.370;-0.486;2023-09-19T11:14:41;100467.50;;;20.32;72.86
71424;BME280;59240;51.370;-0.486;2023-09-19T11:30:48;100482.97;;;20.38;72.86
71424;BME280;59240;51.370;-0.486;2023-09-19T11:46:18;100470.94;;;20.07;74.85
71424;BME280;59240;51.370;-0.486;2023-09-19T11:51:25;100465.44;;;20.10;74.87
71424;BME280;59240;51.370;-0.486;2023-09-19T11:56:25;100489.72;;;20.30;74.95
71424;BME280;59240;51.370;-0.486;2023-09-19T12:01:28;100475.53;;;20.18;75.95
71424;BME280;59240;51.370;-0.486;2023-09-19T12:06:27;100476.00;;;20.50;75.42
71424;BME280;59240;51.370;-0.486;2023-09-19T12:11:30;100448.09;;;20.46;75.16
71424;BME280;59240;51.370;-0.486;2023-09-19T12:16:33;100459.28;;;20.62;75.11
71424;BME280;59240;51.370;-0.486;2023-09-19T12:21:31;100435.16;;;20.54;74.90
71424;BME280;59240;51.370;-0.486;2023-09-19T12:26:28;100449.34;;;20.53;74.97
71424;BME280;59240;51.370;-0.486;2023-09-19T12:31:25;100462.16;;;20.59;75.07
71424;BME280;59240;51.370;-0.486;2023-09-19T12:36:24;100438.84;;;20.39;75.25
71424;BME280;59240;51.370;-0.486;2023-09-19T12:41:27;100449.13;;;20.56;75.73
71424;BME280;59240;51.370;-0.486;2023-09-19T12:46:24;100451.88;;;20.55;76.00
71424;BME280;59240;51.370;-0.486;2023-09-19T12:51:22;100438.28;;;20.34;76.81
71424;BME280;59240;51.370;-0.486;2023-09-19T12:56:21;100434.78;;;20.20;77.47
71424;BME280;59240;51.370;-0.486;2023-09-19T13:01:20;100431.03;;;20.10;77.86
71424;BME280;59240;51.370;-0.486;2023-09-19T13:06:35;100431.69;;;20.01;79.00
71424;BME280;59240;51.370;-0.486;2023-09-19T13:11:39;100423.00;;;19.99;79.09
71424;BME280;59240;51.370;-0.486;2023-09-19T13:17:00;100447.16;;;20.20;79.70
71424;BME280;59240;51.370;-0.486;2023-09-19T13:22:42;100450.34;;;20.25;79.53
71424;BME280;59240;51.370;-0.486;2023-09-19T13:27:42;100460.81;;;20.27;79.04
71424;BME280;59240;51.370;-0.486;2023-09-19T13:32:41;100415.72;;;20.15;79.38
71424;BME280;59240;51.370;-0.486;2023-09-19T13:37:41;100435.66;;;20.34;79.15
71424;BME280;59240;51.370;-0.486;2023-09-19T13:42:41;100443.59;;;20.34;78.99
71424;BME280;59240;51.370;-0.486;2023-09-19T13:47:38;100455.22;;;20.31;78.92
71424;BME280;59240;51.370;-0.486;2023-09-19T13:52:36;100417.97;;;20.21;79.35
71424;BME280;59240;51.370;-0.486;2023-09-19T13:57:33;100426.03;;;20.33;79.35
71424;BME280;59240;51.370;-0.486;2023-09-19T14:02:30;100436.31;;;20.50;79.50
71424;BME280;59240;51.370;-0.486;2023-09-19T14:07:28;100431.56;;;20.55;79.34
71424;BME280;59240;51.370;-0.486;2023-09-19T14:12:25;100424.66;;;20.65;79.08
71424;BME280;59240;51.370;-0.486;2023-09-19T14:17:22;100449.44;;;20.77;78.88
71424;BME280;59240;51.370;-0.486;2023-09-19T14:22:20;100438.75;;;20.79;79.05
71424;BME280;59240;51.370;-0.486;2023-09-19T14:27:17;100417.78;;;20.63;79.05
71424;BME280;59240;51.370;-0.486;2023-09-19T14:32:14;100396.00;;;20.59;79.01
71424;BME280;59240;51.370;-0.486;2023-09-19T14:37:11;100405.72;;;20.71;79.23
71424;BME280;59240;51.370;-0.486;2023-09-19T14:42:08;100439.16;;;20.85;79.23
71424;BME280;59240;51.370;-0.486;2023-09-19T14:47:05;100400.88;;;20.53;79.27
71424;BME280;59240;51.370;-0.486;2023-09-19T14:52:04;100422.03;;;20.65;79.82
71424;BME280;59240;51.370;-0.486;2023-09-19T14:57:01;100425.63;;;20.77;80.45
71424;BME280;59240;51.370;-0.486;2023-09-19T15:02:01;100433.66;;;20.75;80.46
71424;BME280;59240;51.370;-0.486;2023-09-19T15:06:58;100425.44;;;20.67;80.75
71424;BME280;59240;51.370;-0.486;2023-09-19T15:11:55;100448.41;;;20.80;80.67
71424;BME280;59240;51.370;-0.486;2023-09-19T15:16:52;100442.03;;;20.69;81.09
71424;BME280;59240;51.370;-0.486;2023-09-19T15:21:49;100454.31;;;20.70;80.77
71424;BME280;59240;51.370;-0.486;2023-09-19T15:26:47;100454.44;;;20.82;80.79
71424;BME280;59240;51.370;-0.486;2023-09-19T15:31:55;100439.94;;;20.74;80.99
71424;BME280;59240;51.370;-0.486;2023-09-19T15:36:54;100441.19;;;20.69;80.74
71424;BME280;59240;51.370;-0.486;2023-09-19T15:41:51;100441.31;;;20.67;80.86
71424;BME280;59240;51.370;-0.486;2023-09-19T15:46:48;100396.41;;;20.40;81.03
71424;BME280;59240;51.370;-0.486;2023-09-19T15:51:45;100403.19;;;20.44;80.55
71424;BME280;59240;51.370;-0.486;2023-09-19T15:56:43;100426.47;;;20.77;80.89
71424;BME280;59240;51.370;-0.486;2023-09-19T16:01:42;100424.13;;;20.86;80.38
71424;BME280;59240;51.370;-0.486;2023-09-19T16:06:40;100389.63;;;20.62;79.60
71424;BME280;59240;51.370;-0.486;2023-09-19T16:11:37;100390.16;;;20.67;79.25
71424;BME280;59240;51.370;-0.486;2023-09-19T16:16:35;100390.47;;;20.62;78.92
71424;BME280;59240;51.370;-0.486;2023-09-19T16:21:33;100391.97;;;20.66;78.49
71424;BME280;59240;51.370;-0.486;2023-09-19T16:26:33;100381.41;;;20.54;78.10
71424;BME280;59240;51.370;-0.486;2023-09-19T16:31:31;100398.97;;;20.67;77.99
71424;BME280;59240;51.370;-0.486;2023-09-19T16:36:29;100415.88;;;20.77;77.75
71424;BME280;59240;51.370;-0.486;2023-09-19T16:41:28;100394.09;;;20.61;77.42
71424;BME280;59240;51.370;-0.486;2023-09-19T16:46:25;100414.19;;;20.76;77.42
71424;BME280;59240;51.370;-0.486;2023-09-19T16:51:23;100420.31;;;20.64;77.58
71424;BME280;59240;51.370;-0.486;2023-09-19T16:56:20;100439.81;;;20.63;77.98
71424;BME280;59240;51.370;-0.486;2023-09-19T17:01:17;100438.78;;;20.53;78.64
71424;BME280;59240;51.370;-0.486;2023-09-19T17:06:17;100446.56;;;20.42;78.94
71424;BME280;59240;51.370;-0.486;2023-09-19T17:11:17;100443.19;;;20.40;79.43
71424;BME280;59240;51.370;-0.486;2023-09-19T17:16:16;100444.44;;;20.34;79.93
71424;BME280;59240;51.370;-0.486;2023-09-19T17:21:19;100418.38;;;20.15;80.14
71424;BME280;59240;51.370;-0.486;2023-09-19T17:26:17;100417.50;;;20.02;80.31
71424;BME280;59240;51.370;-0.486;2023-09-19T17:31:17;100450.75;;;20.19;80.36
71424;BME280;59240;51.370;-0.486;2023-09-19T17:36:24;100453.94;;;20.11;81.05
71424;BME280;59240;51.370;-0.486;2023-09-19T17:41:21;100408.16;;;19.84;80.45
71424;BME280;59240;51.370;-0.486;2023-09-19T17:46:19;100453.03;;;19.98;81.40
71424;BME280;59240;51.370;-0.486;2023-09-19T17:51:17;100445.41;;;19.93;81.54
71424;BME280;59240;51.370;-0.486;2023-09-19T17:56:15;100420.19;;;19.75;81.42
71424;BME280;59240;51.370;-0.486;2023-09-19T18:01:17;100419.66;;;19.70;81.90
71424;BME280;59240;51.370;-0.486;2023-09-19T18:06:16;100449.63;;;19.83;81.90
71424;BME280;59240;51.370;-0.486;2023-09-19T18:11:17;100458.97;;;19.75;82.01
71424;BME280;59240;51.370;-0.486;2023-09-19T18:16:14;100432.81;;;19.57;82.54
71424;BME280;59240;51.370;-0.486;2023-09-19T18:21:13;100446.94;;;19.56;82.47
71424;BME280;59240;51.370;-0.486;2023-09-19T18:26:10;100417.38;;;19.37;82.87
71424;BME280;59240;51.370;-0.486;2023-09-19T18:31:08;100428.69;;;19.39;83.47
71424;BME280;59240;51.370;-0.486;2023-09-19T18:36:05;100444.13;;;19.45;83.60
71424;BME280;59240;51.370;-0.486;2023-09-19T18:41:06;100461.19;;;19.54;85.82
71424;BME280;59240;51.370;-0.486;2023-09-19T18:46:08;100448.47;;;19.46;84.14
71424;BME280;59240;51.370;-0.486;2023-09-19T18:51:06;100453.47;;;19.51;84.21
71424;BME280;59240;51.370;-0.486;2023-09-19T18:56:10;100447.53;;;19.47;84.09
71424;BME280;59240;51.370;-0.486;2023-09-19T19:01:13;100445.81;;;19.46;84.21
71424;BME280;59240;51.370;-0.486;2023-09-19T19:06:15;100427.00;;;19.38;83.84
71424;BME280;59240;51.370;-0.486;2023-09-19T19:11:16;100439.03;;;19.42;83.81
71424;BME280;59240;51.370;-0.486;2023-09-19T19:16:15;100422.66;;;19.37;84.31
71424;BME280;59240;51.370;-0.486;2023-09-19T19:21:15;100390.94;;;19.10;84.53
71424;BME280;59240;51.370;-0.486;2023-09-19T19:26:16;100403.38;;;19.08;84.83
71424;BME280;59240;51.370;-0.486;2023-09-19T19:31:14;100401.03;;;19.03;85.09
71424;BME280;59240;51.370;-0.486;2023-09-19T19:36:14;100423.25;;;19.13;85.54
71424;BME280;59240;51.370;-0.486;2023-09-19T19:41:14;100431.94;;;19.16;86.25
71424;BME280;59240;51.370;-0.486;2023-09-19T19:46:12;100416.88;;;19.03;85.80
71424;BME280;59240;51.370;-0.486;2023-09-19T19:51:12;100380.44;;;18.81;86.67
71424;BME280;59240;51.370;-0.486;2023-09-19T19:56:10;100389.81;;;18.85;86.60
71424;BME280;59240;51.370;-0.486;2023-09-19T20:01:07;100431.56;;;18.93;87.05
71424;BME280;59240;51.370;-0.486;2023-09-19T20:06:08;100447.03;;;18.99;87.99
71424;BME280;59240;51.370;-0.486;2023-09-19T20:11:06;100395.97;;;18.72;87.67
71424;BME280;59240;51.370;-0.486;2023-09-19T20:16:04;100411.03;;;18.84;87.58
71424;BME280;59240;51.370;-0.486;2023-09-19T20:21:05;100439.41;;;18.95;87.89
71424;BME280;59240;51.370;-0.486;2023-09-19T20:26:10;100427.34;;;18.91;87.95
71424;BME280;59240;51.370;-0.486;2023-09-19T20:31:10;100439.00;;;19.01;87.65
71424;BME280;59240;51.370;-0.486;2023-09-19T20:36:08;100417.91;;;18.86;87.72
71424;BME280;59240;51.370;-0.486;2023-09-19T20:41:07;100396.16;;;18.69;87.81
71424;BME280;59240;51.370;-0.486;2023-09-19T20:46:04;100423.66;;;18.93;87.51
71424;BME280;59240;51.370;-0.486;2023-09-19T20:51:11;100407.28;;;18.88;87.35
71424;BME280;59240;51.370;-0.486;2023-09-19T20:56:16;100438.63;;;19.07;86.66
71424;BME280;59240;51.370;-0.486;2023-09-19T21:01:18;100409.44;;;18.96;86.19
71424;BME280;59240;51.370;-0.486;2023-09-19T21:06:16;100406.41;;;19.02;85.72
71424;BME280;59240;51.370;-0.486;2023-09-19T21:11:18;100436.47;;;19.13;85.26
71424;BME280;59240;51.370;-0.486;2023-09-19T21:16:16;100423.81;;;19.19;84.94
71424;BME280;59240;51.370;-0.486;2023-09-19T21:21:14;100416.28;;;19.12;84.40
71424;BME280;59240;51.370;-0.486;2023-09-19T21:26:12;100390.94;;;19.10;84.66
71424;BME280;59240;51.370;-0.486;2023-09-19T21:31:09;100423.41;;;19.39;84.38
71424;BME280;59240;51.370;-0.486;2023-09-19T21:36:07;100427.72;;;19.40;84.01
71424;BME280;59240;51.370;-0.486;2023-09-19T21:41:10;100418.84;;;19.41;83.72
71424;BME280;59240;51.370;-0.486;2023-09-19T21:46:08;100395.47;;;19.35;83.62
71424;BME280;59240;51.370;-0.486;2023-09-19T21:51:06;100406.50;;;19.41;83.33
71424;BME280;59240;51.370;-0.486;2023-09-19T21:56:04;100374.75;;;19.29;83.04
71424;BME280;59240;51.370;-0.486;2023-09-19T22:01:02;100379.84;;;19.32;83.26
71424;BME280;59240;51.370;-0.486;2023-09-19T22:06:09;100376.47;;;19.30;82.80
71424;BME280;59240;51.370;-0.486;2023-09-19T22:11:06;100377.75;;;19.37;82.88
71424;BME280;59240;51.370;-0.486;2023-09-19T22:16:12;100379.03;;;19.44;82.94
71424;BME280;59240;51.370;-0.486;2023-09-19T22:21:12;100360.59;;;19.30;82.51
71424;BME280;59240;51.370;-0.486;2023-09-19T22:26:29;100334.59;;;19.24;82.76
71424;BME280;59240;51.370;-0.486;2023-09-19T22:31:27;100349.09;;;19.31;82.79
71424;BME280;59240;51.370;-0.486;2023-09-19T22:36:39;100341.34;;;19.28;82.92
71424;BME280;59240;51.370;-0.486;2023-09-19T22:41:40;100366.56;;;19.46;82.77
71424;BME280;59240;51.370;-0.486;2023-09-19T22:46:37;100297.78;;;19.08;82.65
71424;BME280;59240;51.370;-0.486;2023-09-19T22:51:34;100326.34;;;19.28;82.74
71424;BME280;59240;51.370;-0.486;2023-09-19T22:56:35;100327.84;;;19.32;82.76
71424;BME280;59240;51.370;-0.486;2023-09-19T23:01:32;100341.09;;;19.45;83.02
71424;BME280;59240;51.370;-0.486;2023-09-19T23:06:30;100343.53;;;19.48;83.09
71424;BME280;59240;51.370;-0.486;2023-09-19T23:11:37;100331.91;;;19.38;82.96
71424;BME280;59240;51.370;-0.486;2023-09-19T23:16:36;100356.66;;;19.50;82.96
71424;BME280;59240;51.370;-0.486;2023-09-19T23:21:36;100350.53;;;19.49;82.77
71424;BME280;59240;51.370;-0.486;2023-09-19T23:26:41;100337.91;;;19.40;83.04
71424;BME280;59240;51.370;-0.486;2023-09-19T23:31:41;100359.75;;;19.56;83.23
71424;BME280;59240;51.370;-0.486;2023-09-19T23:36:41;100353.69;;;19.54;82.70
71424;BME280;59240;51.370;-0.486;2023-09-19T23:41:38;100294.88;;;19.25;82.86
71424;BME280;59240;51.370;-0.486;2023-09-19T23:46:36;100341.44;;;19.53;82.95
71424;BME280;59240;51.370;-0.486;2023-09-19T23:51:37;100334.09;;;19.58;82.87
71424;BME280;59240;51.370;-0.486;2023-09-19T23:56:34;100302.84;;;19.38;82.47
